sensor_id;sensor_type;location;lat;lon;timestamp;pressure;altitude;pressure_sealevel;temperature;humidity
59106;BME280;44891;50.204;8.132;2023-04-07T00:03:08;98139.38;;;6.15;100.00
59106;BME280;44891;50.204;8.132;2023-04-07T00:07:12;98138.91;;;6.24;100.00
59106;BME280;44891;50.204;8.132;2023-04-07T00:11:14;98138.50;;;6.28;100.00
59106;BME280;44891;50.204;8.132;2023-04-07T00:15:16;98139.69;;;6.25;100.00
59106;BME280;44891;50.204;8.132;2023-04-07T00:19:18;98131.47;;;6.28;100.00
59106;BME280;44891;50.204;8.132;2023-04-07T00:23:21;98123.59;;;6.35;100.00
59106;BME280;44891;50.204;8.132;2023-04-07T00:27:23;98122.34;;;6.37;100.00
59106;BME280;44891;50.204;8.132;2023-04-07T00:31:26;98123.94;;;6.38;100.00
59106;BME280;44891;50.204;8.132;2023-04-07T00:35:27;98110.06;;;6.44;100.00
59106;BME280;44891;50.204;8.132;2023-04-07T00:39:31;98106.88;;;6.42;100.00
59106;BME280;44891;50.204;8.132;2023-04-07T00:43:33;98099.78;;;6.49;100.00
59106;BME280;44891;50.204;8.132;2023-04-07T00:47:35;98099.22;;;6.47;100.00
59106;BME280;44891;50.204;8.132;2023-04-07T00:51:37;98096.22;;;6.44;100.00
59106;BME280;44891;50.204;8.132;2023-04-07T00:55:40;98097.88;;;6.38;100.00
59106;BME280;44891;50.204;8.132;2023-04-07T00:59:42;98087.06;;;6.35;100.00
59106;BME280;44891;50.204;8.132;2023-04-07T01:03:45;98079.88;;;6.30;100.00
59106;BME280;44891;50.204;8.132;2023-04-07T01:07:51;98072.28;;;6.29;100.00
59106;BME280;44891;50.204;8.132;2023-04-07T01:11:58;98071.03;;;6.31;100.00
59106;BME280;44891;50.204;8.132;2023-04-07T01:16:05;98071.91;;;6.25;100.00
59106;BME280;44891;50.204;8.132;2023-04-07T01:20:16;98072.28;;;6.29;100.00
59106;BME280;44891;50.204;8.132;2023-04-07T01:24:26;98061.00;;;6.35;100.00
59106;BME280;44891;50.204;8.132;2023-04-07T01:32:54;98047.91;;;6.41;100.00
59106;BME280;44891;50.204;8.132;2023-04-07T01:36:59;98052.88;;;6.43;100.00
59106;BME280;44891;50.204;8.132;2023-04-07T01:41:02;98053.84;;;6.48;100.00
59106;BME280;44891;50.204;8.132;2023-04-07T01:45:04;98051.38;;;6.53;100.00
59106;BME280;44891;50.204;8.132;2023-04-07T01:49:07;98044.28;;;6.61;100.00
59106;BME280;44891;50.204;8.132;2023-04-07T01:53:12;98042.84;;;6.65;100.00
59106;BME280;44891;50.204;8.132;2023-04-07T01:57:14;98042.19;;;6.69;100.00
59106;BME280;44891;50.204;8.132;2023-04-07T02:01:18;98044.66;;;6.64;100.00
59106;BME280;44891;50.204;8.132;2023-04-07T02:05:21;98034.66;;;6.61;100.00
59106;BME280;44891;50.204;8.132;2023-04-07T02:09:23;98029.91;;;6.51;100.00
59106;BME280;44891;50.204;8.132;2023-04-07T02:13:28;98038.63;;;6.64;100.00
59106;BME280;44891;50.204;8.132;2023-04-07T02:17:31;98039.66;;;6.63;100.00
59106;BME280;44891;50.204;8.132;2023-04-07T02:21:35;98034.44;;;6.63;100.00
59106;BME280;44891;50.204;8.132;2023-04-07T02:25:37;98039.06;;;6.61;100.00
59106;BME280;44891;50.204;8.132;2023-04-07T02:29:39;98029.38;;;6.68;100.00
59106;BME280;44891;50.204;8.132;2023-04-07T02:33:41;98028.13;;;6.70;100.00
59106;BME280;44891;50.204;8.132;2023-04-07T02:37:44;98028.84;;;6.77;100.00
59106;BME280;44891;50.204;8.132;2023-04-07T02:41:46;98023.06;;;6.75;100.00
59106;BME280;44891;50.204;8.132;2023-04-07T02:45:48;98028.78;;;6.84;100.00
59106;BME280;44891;50.204;8.132;2023-04-07T02:49:50;98018.78;;;6.81;100.00
59106;BME280;44891;50.204;8.132;2023-04-07T02:53:53;98021.09;;;6.89;100.00
59106;BME280;44891;50.204;8.132;2023-04-07T02:57:55;98021.34;;;6.99;100.00
59106;BME280;44891;50.204;8.132;2023-04-07T03:02:07;98018.47;;;6.89;100.00
59106;BME280;44891;50.204;8.132;2023-04-07T03:06:10;98011.59;;;6.95;100.00
59106;BME280;44891;50.204;8.132;2023-04-07T03:10:24;98011.16;;;6.79;100.00
59106;BME280;44891;50.204;8.132;2023-04-07T03:14:26;98014.63;;;6.92;100.00
59106;BME280;44891;50.204;8.132;2023-04-07T03:18:28;98005.44;;;6.89;100.00
59106;BME280;44891;50.204;8.132;2023-04-07T03:22:34;98001.78;;;6.90;100.00
59106;BME280;44891;50.204;8.132;2023-04-07T03:26:37;98003.63;;;6.90;100.00
59106;BME280;44891;50.204;8.132;2023-04-07T03:30:46;98005.13;;;6.79;100.00
59106;BME280;44891;50.204;8.132;2023-04-07T03:34:49;97999.72;;;6.80;100.00
59106;BME280;44891;50.204;8.132;2023-04-07T03:38:51;97995.78;;;6.71;100.00
59106;BME280;44891;50.204;8.132;2023-04-07T03:42:54;98000.78;;;6.73;100.00
59106;BME280;44891;50.204;8.132;2023-04-07T03:46:56;97999.66;;;6.69;100.00
59106;BME280;44891;50.204;8.132;2023-04-07T03:51:00;98000.81;;;6.54;100.00
59106;BME280;44891;50.204;8.132;2023-04-07T03:55:02;98002.03;;;6.52;100.00
59106;BME280;44891;50.204;8.132;2023-04-07T03:59:07;97991.44;;;6.47;100.00
59106;BME280;44891;50.204;8.132;2023-04-07T04:03:14;97991.44;;;6.47;100.00
59106;BME280;44891;50.204;8.132;2023-04-07T04:07:25;97988.25;;;6.45;100.00
59106;BME280;44891;50.204;8.132;2023-04-07T04:11:31;97994.25;;;6.45;100.00
59106;BME280;44891;50.204;8.132;2023-04-07T04:15:38;97996.88;;;6.45;100.00
59106;BME280;44891;50.204;8.132;2023-04-07T04:19:45;97992.53;;;6.58;100.00
59106;BME280;44891;50.204;8.132;2023-04-07T04:23:55;97997.19;;;6.56;100.00
59106;BME280;44891;50.204;8.132;2023-04-07T04:27:57;97995.78;;;6.53;100.00
59106;BME280;44891;50.204;8.132;2023-04-07T04:32:02;97996.22;;;6.50;100.00
59106;BME280;44891;50.204;8.132;2023-04-07T04:36:05;97989.78;;;6.52;100.00
59106;BME280;44891;50.204;8.132;2023-04-07T04:40:08;97993.41;;;6.51;100.00
59106;BME280;44891;50.204;8.132;2023-04-07T04:44:12;98002.25;;;6.50;100.00
59106;BME280;44891;50.204;8.132;2023-04-07T04:48:17;98002.41;;;6.56;100.00
59106;BME280;44891;50.204;8.132;2023-04-07T04:52:19;98007.91;;;6.66;100.00
59106;BME280;44891;50.204;8.132;2023-04-07T04:56:23;98003.91;;;6.63;100.00
59106;BME280;44891;50.204;8.132;2023-04-07T05:00:25;98003.34;;;6.61;100.00
59106;BME280;44891;50.204;8.132;2023-04-07T05:04:34;98010.31;;;6.67;100.00
59106;BME280;44891;50.204;8.132;2023-04-07T05:08:53;98018.13;;;6.67;100.00
59106;BME280;44891;50.204;8.132;2023-04-07T05:12:59;98012.91;;;6.67;100.00
59106;BME280;44891;50.204;8.132;2023-04-07T05:17:01;98012.84;;;6.74;100.00
59106;BME280;44891;50.204;8.132;2023-04-07T05:21:04;98017.84;;;6.75;100.00
59106;BME280;44891;50.204;8.132;2023-04-07T05:25:09;98021.25;;;6.76;100.00
59106;BME280;44891;50.204;8.132;2023-04-07T05:29:12;98021.97;;;6.83;100.00
59106;BME280;44891;50.204;8.132;2023-04-07T05:33:14;98022.38;;;6.80;100.00
59106;BME280;44891;50.204;8.132;2023-04-07T05:37:21;97973.84;;;6.42;100.00
59106;BME280;44891;50.204;8.132;2023-04-07T05:41:24;98011.59;;;6.76;100.00
59106;BME280;44891;50.204;8.132;2023-04-07T05:45:26;98016.81;;;6.76;100.00
59106;BME280;44891;50.204;8.132;2023-04-07T05:49:29;98026.16;;;6.84;100.00
59106;BME280;44891;50.204;8.132;2023-04-07T05:53:39;98024.72;;;6.88;100.00
59106;BME280;44891;50.204;8.132;2023-04-07T05:57:41;98020.53;;;6.87;100.00
59106;BME280;44891;50.204;8.132;2023-04-07T06:01:43;98023.41;;;6.97;100.00
59106;BME280;44891;50.204;8.132;2023-04-07T06:05:46;98026.16;;;7.02;100.00
59106;BME280;44891;50.204;8.132;2023-04-07T06:09:49;98032.66;;;6.93;100.00
59106;BME280;44891;50.204;8.132;2023-04-07T06:13:51;98023.53;;;7.02;100.00
59106;BME280;44891;50.204;8.132;2023-04-07T06:17:53;98027.19;;;7.01;100.00
59106;BME280;44891;50.204;8.132;2023-04-07T06:21:55;98033.75;;;7.04;100.00
59106;BME280;44891;50.204;8.132;2023-04-07T06:25:58;98027.66;;;7.10;100.00
59106;BME280;44891;50.204;8.132;2023-04-07T06:30:00;98028.06;;;7.25;100.00
59106;BME280;44891;50.204;8.132;2023-04-07T06:34:02;98031.75;;;7.36;100.00
59106;BME280;44891;50.204;8.132;2023-04-07T06:38:04;98033.63;;;7.47;100.00
59106;BME280;44891;50.204;8.132;2023-04-07T06:42:08;98035.69;;;7.57;100.00
59106;BME280;44891;50.204;8.132;2023-04-07T06:46:14;98033.94;;;7.51;100.00
59106;BME280;44891;50.204;8.132;2023-04-07T06:50:16;98037.81;;;7.48;100.00
59106;BME280;44891;50.204;8.132;2023-04-07T06:54:20;98036.66;;;7.44;100.00
59106;BME280;44891;50.204;8.132;2023-04-07T06:58:23;98044.19;;;7.52;100.00
59106;BME280;44891;50.204;8.132;2023-04-07T07:02:25;98040.69;;;7.58;100.00
59106;BME280;44891;50.204;8.132;2023-04-07T07:06:27;98047.94;;;7.56;100.00
59106;BME280;44891;50.204;8.132;2023-04-07T07:10:29;98040.13;;;7.56;100.00
59106;BME280;44891;50.204;8.132;2023-04-07T07:14:32;98048.50;;;7.58;100.00
59106;BME280;44891;50.204;8.132;2023-04-07T07:18:34;98056.16;;;7.72;100.00
59106;BME280;44891;50.204;8.132;2023-04-07T07:22:36;98054.16;;;7.74;100.00
59106;BME280;44891;50.204;8.132;2023-04-07T07:26:38;98060.06;;;7.81;100.00
59106;BME280;44891;50.204;8.132;2023-04-07T07:30:42;98055.28;;;7.78;100.00
59106;BME280;44891;50.204;8.132;2023-04-07T07:34:44;98058.03;;;7.83;100.00
59106;BME280;44891;50.204;8.132;2023-04-07T07:38:46;98061.66;;;7.82;100.00
59106;BME280;44891;50.204;8.132;2023-04-07T07:42:49;98065.63;;;7.84;100.00
59106;BME280;44891;50.204;8.132;2023-04-07T07:46:53;98072.56;;;7.79;100.00
59106;BME280;44891;50.204;8.132;2023-04-07T07:50:54;98075.75;;;7.81;100.00
59106;BME280;44891;50.204;8.132;2023-04-07T07:54:56;98071.56;;;7.91;100.00
59106;BME280;44891;50.204;8.132;2023-04-07T07:58:58;98081.59;;;7.95;100.00
59106;BME280;44891;50.204;8.132;2023-04-07T08:03:01;98082.72;;;7.99;100.00
59106;BME280;44891;50.204;8.132;2023-04-07T08:07:03;98087.75;;;8.00;100.00
59106;BME280;44891;50.204;8.132;2023-04-07T08:11:05;98094.34;;;8.03;100.00
59106;BME280;44891;50.204;8.132;2023-04-07T08:15:07;98095.69;;;8.05;100.00
59106;BME280;44891;50.204;8.132;2023-04-07T08:19:11;98103.44;;;8.12;100.00
59106;BME280;44891;50.204;8.132;2023-04-07T08:23:13;98102.25;;;8.26;100.00
59106;BME280;44891;50.204;8.132;2023-04-07T08:27:15;98104.16;;;8.31;100.00
59106;BME280;44891;50.204;8.132;2023-04-07T08:31:17;98106.59;;;8.44;100.00
59106;BME280;44891;50.204;8.132;2023-04-07T08:35:20;98109.00;;;8.57;100.00
59106;BME280;44891;50.204;8.132;2023-04-07T08:39:22;98109.66;;;8.64;100.00
59106;BME280;44891;50.204;8.132;2023-04-07T08:43:24;98114.47;;;8.67;100.00
59106;BME280;44891;50.204;8.132;2023-04-07T08:47:27;98113.66;;;8.67;100.00
59106;BME280;44891;50.204;8.132;2023-04-07T08:51:32;98118.66;;;8.68;100.00
59106;BME280;44891;50.204;8.132;2023-04-07T08:55:35;98129.38;;;8.55;100.00
59106;BME280;44891;50.204;8.132;2023-04-07T08:59:37;98128.91;;;8.58;100.00
59106;BME280;44891;50.204;8.132;2023-04-07T09:03:42;98130.84;;;8.63;100.00
59106;BME280;44891;50.204;8.132;2023-04-07T09:07:46;98132.78;;;8.56;100.00
59106;BME280;44891;50.204;8.132;2023-04-07T09:11:48;98140.97;;;8.48;100.00
59106;BME280;44891;50.204;8.132;2023-04-07T09:15:50;98137.31;;;8.49;100.00
59106;BME280;44891;50.204;8.132;2023-04-07T09:19:52;98146.31;;;8.41;100.00
59106;BME280;44891;50.204;8.132;2023-04-07T09:23:58;98150.75;;;8.64;100.00
59106;BME280;44891;50.204;8.132;2023-04-07T09:28:00;98147.13;;;9.00;100.00
59106;BME280;44891;50.204;8.132;2023-04-07T09:32:03;98151.09;;;9.14;100.00
59106;BME280;44891;50.204;8.132;2023-04-07T09:36:05;98154.63;;;8.96;100.00
59106;BME280;44891;50.204;8.132;2023-04-07T09:40:08;98155.34;;;8.80;100.00
59106;BME280;44891;50.204;8.132;2023-04-07T09:44:10;98150.66;;;8.94;100.00
59106;BME280;44891;50.204;8.132;2023-04-07T09:48:17;98154.88;;;9.07;100.00
59106;BME280;44891;50.204;8.132;2023-04-07T09:52:21;98113.09;;;8.77;100.00
59106;BME280;44891;50.204;8.132;2023-04-07T09:56:24;98161.44;;;9.21;100.00
59106;BME280;44891;50.204;8.132;2023-04-07T10:00:27;98157.66;;;9.40;100.00
59106;BME280;44891;50.204;8.132;2023-04-07T10:04:29;98154.53;;;9.55;100.00
59106;BME280;44891;50.204;8.132;2023-04-07T10:08:31;98168.44;;;9.56;100.00
59106;BME280;44891;50.204;8.132;2023-04-07T10:12:35;98123.91;;;9.44;100.00
59106;BME280;44891;50.204;8.132;2023-04-07T10:16:37;98168.69;;;9.82;100.00
59106;BME280;44891;50.204;8.132;2023-04-07T10:20:40;98170.66;;;9.75;100.00
59106;BME280;44891;50.204;8.132;2023-04-07T10:24:45;98175.94;;;9.64;100.00
59106;BME280;44891;50.204;8.132;2023-04-07T10:28:54;98177.16;;;9.33;100.00
59106;BME280;44891;50.204;8.132;2023-04-07T10:32:58;98181.25;;;9.29;100.00
59106;BME280;44891;50.204;8.132;2023-04-07T10:37:07;98182.97;;;9.35;100.00
59106;BME280;44891;50.204;8.132;2023-04-07T10:45:53;98185.63;;;9.63;100.00
59106;BME280;44891;50.204;8.132;2023-04-07T10:50:13;98189.16;;;9.69;100.00
59106;BME280;44891;50.204;8.132;2023-04-07T10:54:15;98194.88;;;9.66;99.88
59106;BME280;44891;50.204;8.132;2023-04-07T10:58:19;98200.03;;;9.49;98.47
59106;BME280;44891;50.204;8.132;2023-04-07T11:02:36;98200.94;;;9.43;100.00
59106;BME280;44891;50.204;8.132;2023-04-07T11:06:45;98202.09;;;9.35;100.00
59106;BME280;44891;50.204;8.132;2023-04-07T11:10:47;98205.44;;;9.19;100.00
59106;BME280;44891;50.204;8.132;2023-04-07T11:14:49;98205.44;;;9.19;100.00
59106;BME280;44891;50.204;8.132;2023-04-07T11:18:52;98202.81;;;9.19;100.00
59106;BME280;44891;50.204;8.132;2023-04-07T11:22:58;98204.06;;;9.16;100.00
59106;BME280;44891;50.204;8.132;2023-04-07T11:27:00;98207.59;;;9.22;100.00
59106;BME280;44891;50.204;8.132;2023-04-07T11:31:02;98210.75;;;9.24;100.00
59106;BME280;44891;50.204;8.132;2023-04-07T11:35:06;98211.69;;;9.30;100.00
59106;BME280;44891;50.204;8.132;2023-04-07T11:39:17;98218.31;;;9.20;100.00
59106;BME280;44891;50.204;8.132;2023-04-07T11:43:20;98218.63;;;9.36;100.00
59106;BME280;44891;50.204;8.132;2023-04-07T11:47:32;98219.88;;;9.45;100.00
59106;BME280;44891;50.204;8.132;2023-04-07T11:51:35;98224.53;;;9.43;100.00
59106;BME280;44891;50.204;8.132;2023-04-07T11:55:37;98224.38;;;9.73;100.00
59106;BME280;44891;50.204;8.132;2023-04-07T11:59:39;98229.88;;;9.71;99.67
59106;BME280;44891;50.204;8.132;2023-04-07T12:03:53;98225.78;;;9.52;99.41
59106;BME280;44891;50.204;8.132;2023-04-07T12:07:57;98237.63;;;9.43;100.00
59106;BME280;44891;50.204;8.132;2023-04-07T12:11:59;98230.13;;;9.35;100.00
59106;BME280;44891;50.204;8.132;2023-04-07T12:16:01;98238.69;;;9.18;100.00
59106;BME280;44891;50.204;8.132;2023-04-07T12:20:03;98241.41;;;9.00;100.00
59106;BME280;44891;50.204;8.132;2023-04-07T12:24:07;98248.38;;;9.06;100.00
59106;BME280;44891;50.204;8.132;2023-04-07T12:28:09;98247.78;;;9.04;100.00
59106;BME280;44891;50.204;8.132;2023-04-07T12:32:11;98245.66;;;9.24;100.00
59106;BME280;44891;50.204;8.132;2023-04-07T12:36:13;98255.44;;;9.41;100.00
59106;BME280;44891;50.204;8.132;2023-04-07T12:40:16;98249.03;;;9.60;100.00
59106;BME280;44891;50.204;8.132;2023-04-07T12:44:18;98251.63;;;9.72;100.00
59106;BME280;44891;50.204;8.132;2023-04-07T12:48:20;98257.34;;;9.57;100.00
59106;BME280;44891;50.204;8.132;2023-04-07T12:52:21;98264.88;;;9.42;100.00
59106;BME280;44891;50.204;8.132;2023-04-07T12:56:25;98259.09;;;9.28;100.00
59106;BME280;44891;50.204;8.132;2023-04-07T13:00:27;98260.78;;;9.22;100.00
59106;BME280;44891;50.204;8.132;2023-04-07T13:04:29;98269.66;;;9.10;100.00
59106;BME280;44891;50.204;8.132;2023-04-07T13:08:31;98275.84;;;9.27;100.00
59106;BME280;44891;50.204;8.132;2023-04-07T13:12:34;98269.44;;;9.46;100.00
59106;BME280;44891;50.204;8.132;2023-04-07T13:16:36;98275.50;;;9.47;100.00
59106;BME280;44891;50.204;8.132;2023-04-07T13:20:38;98271.50;;;9.44;100.00
59106;BME280;44891;50.204;8.132;2023-04-07T13:24:40;98272.44;;;9.38;100.00
59106;BME280;44891;50.204;8.132;2023-04-07T13:28:43;98270.00;;;9.37;100.00
59106;BME280;44891;50.204;8.132;2023-04-07T13:32:45;98270.91;;;9.31;100.00
59106;BME280;44891;50.204;8.132;2023-04-07T13:36:48;98265.00;;;9.23;100.00
59106;BME280;44891;50.204;8.132;2023-04-07T13:40:50;98276.38;;;9.17;100.00
59106;BME280;44891;50.204;8.132;2023-04-07T13:44:53;98278.31;;;9.10;100.00
59106;BME280;44891;50.204;8.132;2023-04-07T13:48:55;98281.06;;;9.15;100.00
59106;BME280;44891;50.204;8.132;2023-04-07T13:52:57;98279.81;;;9.18;100.00
59106;BME280;44891;50.204;8.132;2023-04-07T13:56:59;98283.34;;;9.23;100.00
59106;BME280;44891;50.204;8.132;2023-04-07T14:01:02;98283.13;;;9.48;100.00
59106;BME280;44891;50.204;8.132;2023-04-07T14:05:05;98290.31;;;9.65;100.00
59106;BME280;44891;50.204;8.132;2023-04-07T14:09:06;98296.09;;;9.55;100.00
59106;BME280;44891;50.204;8.132;2023-04-07T14:13:08;98288.03;;;9.33;100.00
59106;BME280;44891;50.204;8.132;2023-04-07T14:17:12;98293.03;;;9.23;100.00
59106;BME280;44891;50.204;8.132;2023-04-07T14:21:13;98291.91;;;9.19;100.00
59106;BME280;44891;50.204;8.132;2023-04-07T14:25:15;98293.50;;;9.32;100.00
59106;BME280;44891;50.204;8.132;2023-04-07T14:29:17;98296.00;;;9.38;100.00
59106;BME280;44891;50.204;8.132;2023-04-07T14:33:20;98293.03;;;9.46;100.00
59106;BME280;44891;50.204;8.132;2023-04-07T14:37:22;98288.81;;;9.57;100.00
59106;BME280;44891;50.204;8.132;2023-04-07T14:41:26;98294.38;;;9.72;98.08
59106;BME280;44891;50.204;8.132;2023-04-07T14:45:28;98291.53;;;9.86;99.49
59106;BME280;44891;50.204;8.132;2023-04-07T14:49:31;98294.53;;;10.75;95.08
59106;BME280;44891;50.204;8.132;2023-04-07T14:53:33;98289.69;;;11.34;88.04
59106;BME280;44891;50.204;8.132;2023-04-07T14:57:35;98290.31;;;11.41;86.69
59106;BME280;44891;50.204;8.132;2023-04-07T15:01:36;98292.38;;;11.22;84.36
59106;BME280;44891;50.204;8.132;2023-04-07T15:05:40;98305.63;;;10.94;86.18
59106;BME280;44891;50.204;8.132;2023-04-07T15:09:42;98307.63;;;10.29;89.61
59106;BME280;44891;50.204;8.132;2023-04-07T15:13:44;98302.38;;;9.66;92.17
59106;BME280;44891;50.204;8.132;2023-04-07T15:17:46;98306.03;;;9.41;95.19
59106;BME280;44891;50.204;8.132;2023-04-07T15:21:49;98312.97;;;9.12;98.49
59106;BME280;44891;50.204;8.132;2023-04-07T15:25:51;98317.03;;;8.85;100.00
59106;BME280;44891;50.204;8.132;2023-04-07T15:29:55;98311.41;;;8.81;100.00
59106;BME280;44891;50.204;8.132;2023-04-07T15:33:57;98317.03;;;8.85;100.00
59106;BME280;44891;50.204;8.132;2023-04-07T15:38:00;98320.19;;;8.87;100.00
59106;BME280;44891;50.204;8.132;2023-04-07T15:42:02;98312.56;;;8.85;100.00
59106;BME280;44891;50.204;8.132;2023-04-07T15:46:04;98311.56;;;8.86;100.00
59106;BME280;44891;50.204;8.132;2023-04-07T15:50:06;98318.72;;;8.91;100.00
59106;BME280;44891;50.204;8.132;2023-04-07T15:54:10;98323.84;;;10.03;100.00
59106;BME280;44891;50.204;8.132;2023-04-07T15:58:12;98328.31;;;10.83;92.70
59106;BME280;44891;50.204;8.132;2023-04-07T16:02:13;98335.06;;;10.79;90.76
59106;BME280;44891;50.204;8.132;2023-04-07T16:06:15;98338.31;;;10.29;92.55
59106;BME280;44891;50.204;8.132;2023-04-07T16:10:19;98339.28;;;9.88;95.47
59106;BME280;44891;50.204;8.132;2023-04-07T16:14:20;98337.03;;;9.91;94.55
59106;BME280;44891;50.204;8.132;2023-04-07T16:18:22;98340.69;;;10.42;92.96
59106;BME280;44891;50.204;8.132;2023-04-07T16:22:24;98349.53;;;10.13;91.72
59106;BME280;44891;50.204;8.132;2023-04-07T16:26:28;98347.63;;;9.61;94.30
59106;BME280;44891;50.204;8.132;2023-04-07T16:30:29;98349.66;;;9.36;97.24
59106;BME280;44891;50.204;8.132;2023-04-07T16:34:31;98348.19;;;9.40;97.41
59106;BME280;44891;50.204;8.132;2023-04-07T16:38:33;98346.13;;;9.18;97.27
59106;BME280;44891;50.204;8.132;2023-04-07T16:42:37;98353.66;;;9.26;98.95
59106;BME280;44891;50.204;8.132;2023-04-07T16:46:38;98362.09;;;9.40;98.76
59106;BME280;44891;50.204;8.132;2023-04-07T16:50:41;98353.09;;;9.36;97.49
59106;BME280;44891;50.204;8.132;2023-04-07T16:54:43;98368.25;;;9.34;98.81
59106;BME280;44891;50.204;8.132;2023-04-07T16:58:46;98375.41;;;9.27;99.64
59106;BME280;44891;50.204;8.132;2023-04-07T17:02:48;98367.19;;;9.23;98.73
59106;BME280;44891;50.204;8.132;2023-04-07T17:06:50;98372.09;;;9.20;97.71
59106;BME280;44891;50.204;8.132;2023-04-07T17:10:51;98368.00;;;9.12;98.18
59106;BME280;44891;50.204;8.132;2023-04-07T17:14:55;98379.50;;;9.11;97.74
59106;BME280;44891;50.204;8.132;2023-04-07T17:18:56;98377.06;;;9.10;98.24
59106;BME280;44891;50.204;8.132;2023-04-07T17:22:58;98384.59;;;9.06;99.17
59106;BME280;44891;50.204;8.132;2023-04-07T17:27:00;98383.31;;;8.97;100.00
59106;BME280;44891;50.204;8.132;2023-04-07T17:31:04;98396.16;;;8.87;100.00
59106;BME280;44891;50.204;8.132;2023-04-07T17:35:06;98399.44;;;8.82;100.00
59106;BME280;44891;50.204;8.132;2023-04-07T17:39:08;98400.53;;;8.75;100.00
59106;BME280;44891;50.204;8.132;2023-04-07T17:43:10;98403.00;;;8.69;100.00
59106;BME280;44891;50.204;8.132;2023-04-07T17:47:13;98409.22;;;8.57;100.00
59106;BME280;44891;50.204;8.132;2023-04-07T17:51:15;98419.75;;;8.50;100.00
59106;BME280;44891;50.204;8.132;2023-04-07T17:55:17;98414.44;;;8.38;100.00
59106;BME280;44891;50.204;8.132;2023-04-07T17:59:19;98422.00;;;8.28;100.00
59106;BME280;44891;50.204;8.132;2023-04-07T18:03:22;98430.66;;;8.29;100.00
59106;BME280;44891;50.204;8.132;2023-04-07T18:07:24;98438.34;;;8.24;100.00
59106;BME280;44891;50.204;8.132;2023-04-07T18:11:26;98438.56;;;8.22;100.00
59106;BME280;44891;50.204;8.132;2023-04-07T18:15:27;98439.81;;;8.20;100.00
59106;BME280;44891;50.204;8.132;2023-04-07T18:19:31;98442.69;;;8.11;100.00
59106;BME280;44891;50.204;8.132;2023-04-07T18:23:33;98447.34;;;8.09;100.00
59106;BME280;44891;50.204;8.132;2023-04-07T18:27:35;98452.63;;;8.03;100.00
59106;BME280;44891;50.204;8.132;2023-04-07T18:31:37;98457.63;;;8.04;100.00
59106;BME280;44891;50.204;8.132;2023-04-07T18:35:41;98458.13;;;7.95;100.00
59106;BME280;44891;50.204;8.132;2023-04-07T18:39:42;98461.16;;;7.91;100.00
59106;BME280;44891;50.204;8.132;2023-04-07T18:43:45;98473.09;;;7.87;100.00
59106;BME280;44891;50.204;8.132;2023-04-07T18:47:47;98481.22;;;7.79;100.00
59106;BME280;44891;50.204;8.132;2023-04-07T18:51:51;98480.47;;;7.66;100.00
59106;BME280;44891;50.204;8.132;2023-04-07T18:55:53;98490.09;;;7.72;100.00
59106;BME280;44891;50.204;8.132;2023-04-07T18:59:55;98487.53;;;7.65;100.00
59106;BME280;44891;50.204;8.132;2023-04-07T19:03:56;98496.72;;;7.43;100.00
59106;BME280;44891;50.204;8.132;2023-04-07T19:08:00;98493.66;;;7.21;100.00
59106;BME280;44891;50.204;8.132;2023-04-07T19:12:01;98505.91;;;7.20;100.00
59106;BME280;44891;50.204;8.132;2023-04-07T19:16:03;98505.97;;;7.07;100.00
59106;BME280;44891;50.204;8.132;2023-04-07T19:20:07;98499.56;;;7.03;100.00
59106;BME280;44891;50.204;8.132;2023-04-07T19:24:10;98504.75;;;7.09;100.00
59106;BME280;44891;50.204;8.132;2023-04-07T19:28:12;98516.78;;;7.11;100.00
59106;BME280;44891;50.204;8.132;2023-04-07T19:32:14;98510.41;;;6.93;100.00
59106;BME280;44891;50.204;8.132;2023-04-07T19:36:16;98510.44;;;6.87;100.00
59106;BME280;44891;50.204;8.132;2023-04-07T19:40:19;98491.66;;;6.65;100.00
59106;BME280;44891;50.204;8.132;2023-04-07T19:44:24;98523.34;;;6.81;100.00
59106;BME280;44891;50.204;8.132;2023-04-07T19:48:26;98527.75;;;6.81;100.00
59106;BME280;44891;50.204;8.132;2023-04-07T19:52:28;98527.00;;;6.67;100.00
59106;BME280;44891;50.204;8.132;2023-04-07T19:56:31;98534.19;;;6.78;100.00
59106;BME280;44891;50.204;8.132;2023-04-07T20:00:33;98545.66;;;6.71;100.00
59106;BME280;44891;50.204;8.132;2023-04-07T20:04:35;98547.28;;;6.59;100.00
59106;BME280;44891;50.204;8.132;2023-04-07T20:08:37;98550.31;;;6.56;100.00
59106;BME280;44891;50.204;8.132;2023-04-07T20:12:40;98550.88;;;6.64;100.00
59106;BME280;44891;50.204;8.132;2023-04-07T20:16:42;98548.47;;;6.63;100.00
59106;BME280;44891;50.204;8.132;2023-04-07T20:20:44;98556.09;;;6.71;100.00
59106;BME280;44891;50.204;8.132;2023-04-07T20:24:46;98561.31;;;6.71;100.00
59106;BME280;44891;50.204;8.132;2023-04-07T20:28:49;98560.72;;;6.69;100.00
59106;BME280;44891;50.204;8.132;2023-04-07T20:32:51;98565.28;;;6.80;100.00
59106;BME280;44891;50.204;8.132;2023-04-07T20:36:53;98568.06;;;6.98;100.00
59106;BME280;44891;50.204;8.132;2023-04-07T20:40:55;98569.28;;;6.96;100.00
59106;BME280;44891;50.204;8.132;2023-04-07T20:44:58;98567.22;;;7.04;100.00
59106;BME280;44891;50.204;8.132;2023-04-07T20:49:03;98571.41;;;7.12;100.00
59106;BME280;44891;50.204;8.132;2023-04-07T20:53:07;98573.22;;;7.12;100.00
59106;BME280;44891;50.204;8.132;2023-04-07T20:57:09;98580.06;;;7.13;100.00
59106;BME280;44891;50.204;8.132;2023-04-07T21:01:12;98578.63;;;7.23;100.00
59106;BME280;44891;50.204;8.132;2023-04-07T21:05:14;98578.09;;;7.01;100.00
59106;BME280;44891;50.204;8.132;2023-04-07T21:09:16;98581.25;;;7.17;100.00
59106;BME280;44891;50.204;8.132;2023-04-07T21:13:18;98581.03;;;7.18;100.00
59106;BME280;44891;50.204;8.132;2023-04-07T21:17:23;98571.81;;;7.16;100.00
59106;BME280;44891;50.204;8.132;2023-04-07T21:21:25;98579.63;;;7.22;100.00
59106;BME280;44891;50.204;8.132;2023-04-07T21:25:27;98579.19;;;7.32;100.00
59106;BME280;44891;50.204;8.132;2023-04-07T21:29:29;98574.78;;;7.26;100.00
59106;BME280;44891;50.204;8.132;2023-04-07T21:33:33;98579.63;;;7.22;100.00
59106;BME280;44891;50.204;8.132;2023-04-07T21:37:35;98577.22;;;7.21;100.00